Pagina principale
METAR-TAF:

METAR-TAF

Aeroporti :

Aeroporto di Pisa-San Giusto

Pisa, Italia

latitudine: 43-41N, longitudine: 010-23E, altezza: 2 m

Osservazione

Il bollettino è stato emesso 50 minuti fa, alle 03:45 UTC
Vento 2 kt da est/sud-est
Temperature 19°C
Umidità 94%
Pressione 1014 hPa
Visibilità 10 km o più
nessuna nube inferiore a 1500 m e nessun cumulonembo

METAR: LIRP 180345Z 12002KT CAVOK 19/18 Q1014 NOSIG

Ora: 06:35 (04:35 UTC)

Previsione

Il bollettino è stato emesso 5 ore e 35 minuti fa, alle 23:00 UTC
Previsione valida dal 18 alle 00 UTC al 18 alle 24 UTC
Vento 4 kt da direzioni variabili
Visibilità 10 km o più
Poco nuvoloso ad un'altezza di 5000 ft
Evoluzione graduale
dal 18 alle 10 UTC al 18 alle 12 UTC
Vento 10 kt da ovest/nord-ovest

TAF: LIRP 172300Z 1800/1824 VRB04KT 9999 FEW050 BECMG 1810/1812 29010KT

Osservazioni e previsioni meteorologiche di più di 4000 aeroporti (messaggi METAR e TAF).

Le stazioni disponibili sono rappresentate dai dischi gialli e rossi sulla carta.

Puntare il mouse per vedere il nome della stazione.

Clicca sopra per visualizzare le osservazioni e previsioni meteorologiche.

Per cambiare la mappa : fare clic sui pulsanti verdi con una croce nera per ingrandire, il pulsante verde con un trattino per diminuire, o sulla freccia verde per le mappe adiacenti.


METAR-TAF: